Time;durP1;ratioP1;P1;durP2;ratioP2;P2;SDS_P1;SDS_P2;PMS_P1;PMS_P2;Temp;Humidity;BMP_temperature;BMP_pressure;BME280_temperature;BME280_humidity;BME280_pressure;Samples;Min_cycle;Max_cycle;Signal;HPM_P1;HPM_P2
2023/02/10 00:01:06;;;;;;;94.97;57.53;;;6.40;99.90;;;;;;4936077;28;20481;-87
2023/02/10 00:03:33;;;;;;;124.65;65.60;;;6.50;99.90;;;;;;4935461;29;20365;-87
2023/02/10 00:05:59;;;;;;;118.07;64.73;;;6.50;99.90;;;;;;4920789;29;20051;-88
2023/02/10 00:08:25;;;;;;;138.77;82.10;;;6.50;99.90;;;;;;4906401;29;20400;-87
2023/02/10 00:10:51;;;;;;;116.50;75.33;;;6.50;99.90;;;;;;4924648;29;20061;-87
2023/02/10 00:13:17;;;;;;;101.30;65.60;;;6.50;99.90;;;;;;4956635;29;20039;-87
2023/02/10 00:15:43;;;;;;;78.30;58.17;;;6.40;99.90;;;;;;4940655;28;20039;-87
2023/02/10 00:18:09;;;;;;;77.50;54.47;;;6.40;99.90;;;;;;4941066;29;20477;-88
2023/02/10 00:20:35;;;;;;;72.20;53.43;;;6.30;99.90;;;;;;4963128;28;20030;-88
2023/02/10 00:23:02;;;;;;;77.90;56.27;;;6.20;99.90;;;;;;4914463;29;20058;-87
2023/02/10 00:25:28;;;;;;;69.03;54.40;;;6.30;99.90;;;;;;4955505;29;20043;-87
2023/02/10 00:27:54;;;;;;;74.03;54.43;;;6.30;99.90;;;;;;4954349;29;20046;-87
2023/02/10 00:30:20;;;;;;;72.33;54.33;;;6.20;99.90;;;;;;4957278;28;20040;-87
2023/02/10 00:32:46;;;;;;;71.90;53.53;;;6.20;99.90;;;;;;4956740;29;20035;-88
2023/02/10 00:35:12;;;;;;;70.53;53.90;;;6.20;99.90;;;;;;4942401;29;20040;-88
2023/02/10 00:37:38;;;;;;;70.00;54.13;;;6.20;99.90;;;;;;4955110;29;20031;-87
2023/02/10 00:40:04;;;;;;;69.83;53.70;;;6.20;99.90;;;;;;4957149;29;20042;-88
2023/02/10 00:42:31;;;;;;;70.00;52.73;;;6.20;99.90;;;;;;4939127;29;20469;-88
2023/02/10 00:44:57;;;;;;;71.67;53.30;;;6.20;99.90;;;;;;4940004;29;20119;-87
2023/02/10 00:47:25;;;;;;;74.50;54.70;;;6.20;99.90;;;;;;4939759;29;20043;-87
2023/02/10 00:49:52;;;;;;;70.77;53.67;;;6.30;99.90;;;;;;4938854;29;20481;-87
2023/02/10 00:52:18;;;;;;;73.00;56.10;;;6.30;99.90;;;;;;4923986;29;20492;-87
2023/02/10 00:54:44;;;;;;;77.60;55.10;;;6.10;99.90;;;;;;4924655;29;20385;-87
2023/02/10 00:57:10;;;;;;;81.73;58.53;;;6.00;99.90;;;;;;4938277;29;20043;-87
2023/02/10 00:59:36;;;;;;;79.90;57.93;;;6.10;99.90;;;;;;4954809;29;20389;-87
2023/02/10 01:02:02;;;;;;;72.87;53.77;;;6.10;99.90;;;;;;4955408;28;20046;-88
2023/02/10 01:04:29;;;;;;;83.70;59.67;;;6.10;99.90;;;;;;4956217;29;20408;-87
2023/02/10 01:06:55;;;;;;;79.63;56.67;;;6.00;99.90;;;;;;4923835;29;20050;-88
2023/02/10 01:09:21;;;;;;;72.80;52.67;;;6.00;99.90;;;;;;4957160;29;20035;-87
2023/02/10 01:11:47;;;;;;;82.13;56.03;;;6.00;99.90;;;;;;4936869;29;20065;-88
2023/02/10 01:14:13;;;;;;;73.90;53.67;;;6.00;99.90;;;;;;4954753;29;20046;-87
2023/02/10 01:16:39;;;;;;;73.43;53.17;;;5.90;99.90;;;;;;4938653;28;20047;-87
2023/02/10 01:19:05;;;;;;;73.70;52.57;;;5.90;99.90;;;;;;4938141;29;20043;-88
2023/02/10 01:21:31;;;;;;;77.23;54.43;;;5.80;99.90;;;;;;4947806;28;20062;-87
2023/02/10 01:23:57;;;;;;;82.27;55.67;;;5.70;99.90;;;;;;4904885;29;20043;-87
2023/02/10 01:26:24;;;;;;;83.00;57.03;;;5.70;99.90;;;;;;4904983;29;20040;-88
2023/02/10 01:28:50;;;;;;;82.53;55.23;;;5.70;99.90;;;;;;4921257;29;20030;-88
2023/02/10 01:31:18;;;;;;;73.93;51.23;;;5.50;99.90;;;;;;4921338;29;20036;-87
2023/02/10 01:33:44;;;;;;;71.70;47.17;;;5.50;99.90;;;;;;4954347;29;20054;-88
2023/02/10 01:36:14;;;;;;;78.13;51.77;;;5.10;99.90;;;;;;4922782;29;20081;-88
2023/02/10 01:38:42;;;;;;;75.50;52.53;;;4.90;99.90;;;;;;4937658;29;20496;-87
2023/02/10 01:41:08;;;;;;;77.20;53.53;;;5.00;99.90;;;;;;4938759;29;20420;-88
2023/02/10 01:43:55;;;;;;;75.90;50.23;;;5.00;99.90;;;;;;4923096;29;20054;-88
2023/02/10 01:46:21;;;;;;;77.70;52.90;;;4.90;99.90;;;;;;4938383;28;20047;-87
2023/02/10 01:48:47;;;;;;;83.47;55.13;;;4.80;99.90;;;;;;4938348;29;20035;-88
2023/02/10 01:51:13;;;;;;;83.93;55.13;;;4.90;99.90;;;;;;4936832;29;20377;-88
2023/02/10 01:53:40;;;;;;;77.03;55.40;;;5.00;99.90;;;;;;4922977;29;20034;-88
2023/02/10 01:56:06;;;;;;;84.83;54.50;;;5.10;99.90;;;;;;4938256;29;20027;-88
2023/02/10 01:58:32;;;;;;;78.37;51.33;;;5.30;99.90;;;;;;4924086;29;20487;-88
2023/02/10 02:00:59;;;;;;;77.73;52.57;;;5.20;99.90;;;;;;4922475;29;20031;-87
2023/02/10 02:03:25;;;;;;;75.73;52.87;;;4.90;99.90;;;;;;4922453;29;20039;-88
2023/02/10 02:05:52;;;;;;;66.13;47.27;;;4.90;99.90;;;;;;4926268;29;20036;-87
2023/02/10 02:08:22;;;;;;;67.63;46.27;;;4.70;99.90;;;;;;4905166;29;20062;-87
2023/02/10 02:10:48;;;;;;;74.47;49.63;;;4.50;99.90;;;;;;4953568;29;20469;-88
2023/02/10 02:13:28;;;;;;;72.63;50.90;;;4.40;99.90;;;;;;4954370;29;20483;-88
2023/02/10 02:15:59;;;;;;;67.27;49.00;;;4.60;99.90;;;;;;4922987;29;20066;-89
2023/02/10 02:18:40;;;;;;;71.43;49.73;;;4.90;99.90;;;;;;4936168;29;20027;-88
2023/02/10 02:21:24;;;;;;;70.25;48.53;;;5.00;99.90;;;;;;4927898;29;20034;-87
2023/02/10 02:24:21;;;;;;;76.70;49.63;;;4.70;99.90;;;;;;4924592;29;20050;-87
2023/02/10 02:27:03;;;;;;;69.43;47.43;;;4.80;99.90;;;;;;4953972;29;20046;-88
2023/02/10 02:29:29;;;;;;;73.37;49.13;;;5.00;99.90;;;;;;4938150;29;20023;-89
2023/02/10 02:32:06;;;;;;;73.00;47.30;;;5.10;99.90;;;;;;4952539;28;20036;-88
2023/02/10 02:34:57;;;;;;;73.43;50.30;;;4.90;99.90;;;;;;4922745;29;20039;-88
2023/02/10 02:37:30;;;;;;;71.40;47.97;;;4.70;99.90;;;;;;4952066;29;20034;-88
2023/02/10 02:39:57;;;;;;;73.87;50.00;;;4.90;99.90;;;;;;4937072;29;20381;-87
2023/02/10 02:42:25;;;;;;;73.03;51.63;;;5.10;99.90;;;;;;4954683;29;20357;-87
2023/02/10 02:45:12;;;;;;;68.20;49.23;;;5.30;99.90;;;;;;4906054;29;20047;-87
2023/02/10 02:47:57;;;;;;;74.70;49.30;;;5.40;99.90;;;;;;4923585;29;20432;-87
2023/02/10 02:50:37;;;;;;;72.70;49.60;;;5.50;99.90;;;;;;4936288;29;20031;-87
2023/02/10 02:53:16;;;;;;;70.63;49.67;;;5.50;99.90;;;;;;4935398;29;20035;-88
2023/02/10 02:55:51;;;;;;;69.40;47.07;;;5.60;99.90;;;;;;4949864;29;20028;-88
2023/02/10 02:58:26;;;;;;;67.60;48.37;;;5.70;99.90;;;;;;4951207;29;20117;-88
2023/02/10 03:00:52;;;;;;;69.07;49.57;;;5.70;99.90;;;;;;4933526;28;20626;-88
2023/02/10 03:03:18;;;;;;;71.23;48.93;;;5.60;99.90;;;;;;4915164;29;20038;-87
2023/02/10 03:05:44;;;;;;;67.50;48.30;;;5.60;99.90;;;;;;4932905;29;20051;-89
2023/02/10 03:08:10;;;;;;;67.03;48.67;;;5.70;99.90;;;;;;4946374;29;20046;-88
2023/02/10 03:10:38;;;;;;;66.37;48.37;;;5.70;99.90;;;;;;4928407;29;20054;-87
2023/02/10 03:13:04;;;;;;;67.23;48.77;;;5.80;99.90;;;;;;4951479;29;20054;-88
2023/02/10 03:15:30;;;;;;;63.53;48.83;;;5.80;99.90;;;;;;4935799;28;20035;-87
2023/02/10 03:17:56;;;;;;;71.73;50.67;;;5.80;99.90;;;;;;4935341;29;20046;-87
2023/02/10 03:20:22;;;;;;;68.00;49.43;;;5.70;99.90;;;;;;4940066;28;20027;-88
2023/02/10 03:22:48;;;;;;;66.43;48.50;;;5.70;99.90;;;;;;4939326;29;20043;-88
2023/02/10 03:25:15;;;;;;;75.97;50.37;;;5.60;99.90;;;;;;4951745;29;20039;-88
2023/02/10 03:27:41;;;;;;;69.73;49.97;;;5.70;99.90;;;;;;4933931;29;20047;-88
2023/02/10 03:30:07;;;;;;;66.90;49.73;;;5.70;99.90;;;;;;4934820;28;20050;-88
2023/02/10 03:32:34;;;;;;;64.60;48.10;;;5.70;99.90;;;;;;4919537;29;20050;-87
2023/02/10 03:35:00;;;;;;;68.20;48.47;;;5.70;99.90;;;;;;4953041;29;20468;-88
2023/02/10 03:37:26;;;;;;;72.77;48.43;;;5.80;99.90;;;;;;4952857;29;20042;-87
2023/02/10 03:39:52;;;;;;;68.20;48.97;;;5.80;99.90;;;;;;4936830;29;20039;-88
2023/02/10 03:42:18;;;;;;;72.63;50.63;;;5.90;99.90;;;;;;4920305;29;20479;-87
2023/02/10 03:44:44;;;;;;;68.30;49.07;;;5.90;99.90;;;;;;4952636;29;20043;-87
2023/02/10 03:47:10;;;;;;;68.80;49.63;;;5.80;99.90;;;;;;4935146;29;20512;-87
2023/02/10 03:49:36;;;;;;;68.03;48.80;;;5.80;99.90;;;;;;4951082;29;20028;-87
2023/02/10 03:52:02;;;;;;;70.03;50.03;;;5.80;99.90;;;;;;4925151;29;20472;-87
2023/02/10 03:54:28;;;;;;;66.20;48.77;;;5.80;99.90;;;;;;4937157;29;20043;-87
2023/02/10 03:56:55;;;;;;;66.40;49.13;;;5.80;99.90;;;;;;4920147;29;20035;-87
2023/02/10 03:59:21;;;;;;;68.37;49.43;;;5.70;99.90;;;;;;4935620;29;20034;-88
2023/02/10 04:01:47;;;;;;;68.23;48.73;;;5.70;99.90;;;;;;4953721;28;20042;-88
2023/02/10 04:04:13;;;;;;;68.67;48.80;;;5.80;99.90;;;;;;4936808;29;20034;-87
2023/02/10 04:06:39;;;;;;;70.23;49.77;;;5.80;99.90;;;;;;4935184;29;20039;-88
2023/02/10 04:09:05;;;;;;;67.43;49.17;;;5.60;99.90;;;;;;4953150;29;20035;-87
2023/02/10 04:11:32;;;;;;;71.43;51.73;;;5.60;99.90;;;;;;4935652;29;20047;-88
2023/02/10 04:13:58;;;;;;;68.00;50.10;;;5.60;99.90;;;;;;4936157;29;20035;-87
2023/02/10 04:16:27;;;;;;;62.67;46.83;;;5.30;99.90;;;;;;4920450;29;20040;-88
2023/02/10 04:18:54;;;;;;;72.00;49.00;;;5.20;99.90;;;;;;4937687;29;20038;-88
2023/02/10 04:21:20;;;;;;;71.30;48.37;;;5.30;99.90;;;;;;4950236;28;20477;-88
2023/02/10 04:23:46;;;;;;;66.43;47.93;;;5.20;99.90;;;;;;4936857;29;20035;-88
2023/02/10 04:26:12;;;;;;;67.40;47.77;;;5.30;99.90;;;;;;4935513;29;20059;-88
2023/02/10 04:28:38;;;;;;;66.90;46.03;;;5.40;99.90;;;;;;4920486;29;20027;-88
2023/02/10 04:31:05;;;;;;;73.13;48.53;;;5.40;99.90;;;;;;4953684;28;20028;-87
2023/02/10 04:33:31;;;;;;;70.13;46.40;;;5.50;99.90;;;;;;4915181;28;20039;-85
2023/02/10 04:35:57;;;;;;;68.73;47.17;;;5.60;99.90;;;;;;4952801;29;20047;-84
2023/02/10 04:38:24;;;;;;;72.27;50.13;;;5.70;99.90;;;;;;4951542;29;20046;-87
2023/02/10 04:40:50;;;;;;;67.30;48.03;;;5.50;99.90;;;;;;4935389;29;20043;-85
2023/02/10 04:43:16;;;;;;;72.37;52.23;;;5.50;99.90;;;;;;4917758;29;20039;-85
2023/02/10 04:45:42;;;;;;;65.23;48.80;;;5.50;99.90;;;;;;4932308;29;20047;-85
2023/02/10 04:48:08;;;;;;;79.50;52.00;;;5.50;99.90;;;;;;4917646;29;20039;-86
2023/02/10 04:50:36;;;;;;;73.53;50.90;;;5.50;99.90;;;;;;4937849;29;20027;-87
2023/02/10 04:53:02;;;;;;;82.70;53.33;;;5.60;99.90;;;;;;4951003;29;20043;-86
2023/02/10 04:55:28;;;;;;;95.37;56.40;;;5.70;99.90;;;;;;4939225;29;20031;-86
2023/02/10 04:57:54;;;;;;;95.23;55.80;;;5.70;99.90;;;;;;4923302;29;20061;-88
2023/02/10 05:00:21;;;;;;;66.30;47.53;;;5.70;99.90;;;;;;4955627;28;20038;-87
2023/02/10 05:02:47;;;;;;;70.97;49.27;;;5.70;99.90;;;;;;4923612;29;20047;-88
2023/02/10 05:05:13;;;;;;;71.73;49.97;;;5.60;99.90;;;;;;4939928;29;20400;-86
2023/02/10 05:07:39;;;;;;;66.60;49.33;;;5.70;99.90;;;;;;4938505;29;20499;-86
2023/02/10 05:10:05;;;;;;;70.17;50.33;;;5.70;99.90;;;;;;4955497;29;20034;-84
2023/02/10 05:12:31;;;;;;;67.93;49.60;;;5.80;99.90;;;;;;4938588;29;20505;-85
2023/02/10 05:14:57;;;;;;;69.17;49.07;;;5.80;99.90;;;;;;4922380;29;20039;-86
2023/02/10 05:17:24;;;;;;;67.80;47.73;;;5.60;99.90;;;;;;4955081;28;20066;-84
2023/02/10 05:19:50;;;;;;;72.73;48.37;;;5.50;99.90;;;;;;4956190;29;20039;-84
2023/02/10 05:22:16;;;;;;;80.53;53.00;;;5.60;99.90;;;;;;4922192;29;20046;-85
2023/02/10 05:24:42;;;;;;;72.23;50.53;;;5.60;99.90;;;;;;4939312;29;20035;-86
2023/02/10 05:27:08;;;;;;;73.37;49.53;;;5.40;99.90;;;;;;4923855;29;20059;-85
2023/02/10 05:29:34;;;;;;;77.47;50.87;;;5.40;99.90;;;;;;4938586;29;20031;-85
2023/02/10 05:32:01;;;;;;;66.97;48.13;;;5.60;99.90;;;;;;4922480;29;20035;-85
2023/02/10 05:34:27;;;;;;;75.17;49.27;;;5.60;99.90;;;;;;4939578;29;20467;-85
2023/02/10 05:36:53;;;;;;;65.03;48.33;;;5.60;99.90;;;;;;4939527;29;20031;-85
2023/02/10 05:39:25;;;;;;;65.57;47.27;;;5.40;99.90;;;;;;4939250;29;20389;-85
2023/02/10 05:41:58;;;;;;;68.47;47.97;;;5.30;99.90;;;;;;4940318;29;20030;-85
2023/02/10 05:44:25;;;;;;;73.87;48.10;;;5.40;99.90;;;;;;4923677;29;20038;-85
2023/02/10 05:46:51;;;;;;;66.70;47.87;;;5.30;99.90;;;;;;4922272;29;20063;-85
2023/02/10 05:49:17;;;;;;;64.83;44.30;;;5.20;99.90;;;;;;4938810;29;20028;-85
2023/02/10 05:51:43;;;;;;;70.27;46.70;;;5.00;99.90;;;;;;4907427;29;20046;-85
2023/02/10 05:54:10;;;;;;;67.73;46.43;;;5.00;99.90;;;;;;4923112;29;20058;-85
2023/02/10 05:56:36;;;;;;;64.23;46.23;;;5.10;99.90;;;;;;4939326;29;20039;-85
2023/02/10 05:59:02;;;;;;;64.77;46.17;;;4.80;99.90;;;;;;4939178;29;20040;-85
2023/02/10 06:01:28;;;;;;;64.30;46.93;;;4.80;99.90;;;;;;4937683;28;20027;-86
2023/02/10 06:03:54;;;;;;;66.13;47.47;;;5.00;99.90;;;;;;4937099;29;20054;-86
2023/02/10 06:06:20;;;;;;;62.83;46.00;;;5.00;99.90;;;;;;4938142;29;20046;-85
2023/02/10 06:08:46;;;;;;;66.97;46.30;;;4.90;99.90;;;;;;4938672;29;20046;-85
2023/02/10 06:11:12;;;;;;;96.03;48.97;;;5.00;99.90;;;;;;4938165;29;20496;-85
2023/02/10 06:13:39;;;;;;;65.97;47.53;;;5.10;99.90;;;;;;4939267;29;20035;-86
2023/02/10 06:16:05;;;;;;;64.07;44.50;;;5.20;99.90;;;;;;4938394;28;20027;-85
2023/02/10 06:18:31;;;;;;;62.63;46.47;;;5.00;99.90;;;;;;4922964;29;20038;-85
2023/02/10 06:20:57;;;;;;;63.67;46.27;;;5.00;99.90;;;;;;4945550;28;20038;-86
2023/02/10 06:23:24;;;;;;;64.10;44.43;;;5.20;99.90;;;;;;4955118;29;20055;-86
2023/02/10 06:25:54;;;;;;;61.07;45.33;;;5.20;99.90;;;;;;4923019;29;20051;-85
2023/02/10 06:28:29;;;;;;;62.00;45.43;;;5.10;99.90;;;;;;4939249;29;20023;-86
2023/02/10 06:30:55;;;;;;;61.23;43.63;;;5.20;99.90;;;;;;4936873;28;20481;-85
2023/02/10 06:33:21;;;;;;;61.17;45.83;;;5.00;99.90;;;;;;4937288;29;20377;-86
2023/02/10 06:35:47;;;;;;;63.97;46.80;;;5.00;99.90;;;;;;4938078;29;20034;-85
2023/02/10 06:38:13;;;;;;;62.20;43.73;;;5.10;99.90;;;;;;4922534;29;20058;-85
2023/02/10 06:40:39;;;;;;;67.47;47.83;;;4.90;99.90;;;;;;4906253;29;20031;-85
2023/02/10 06:43:05;;;;;;;92.90;61.17;;;4.80;99.90;;;;;;4955188;29;20028;-85
2023/02/10 06:45:33;;;;;;;68.53;50.00;;;4.80;99.90;;;;;;4936686;28;20035;-86
2023/02/10 06:47:59;;;;;;;65.00;43.77;;;4.90;99.90;;;;;;4937346;29;20039;-84
2023/02/10 06:50:25;;;;;;;66.83;47.87;;;4.80;99.90;;;;;;4921954;29;20039;-85
2023/02/10 06:52:51;;;;;;;66.30;50.27;;;4.60;99.90;;;;;;4937207;29;20404;-84
2023/02/10 06:55:17;;;;;;;58.47;45.53;;;4.80;99.90;;;;;;4953126;29;20035;-87
2023/02/10 06:57:43;;;;;;;60.70;46.73;;;4.90;99.90;;;;;;4955358;29;20031;-88
2023/02/10 07:00:12;;;;;;;56.67;41.93;;;5.00;99.90;;;;;;4953904;28;20038;-88
2023/02/10 07:02:38;;;;;;;59.00;44.10;;;5.00;99.90;;;;;;4936356;29;20043;-86
2023/02/10 07:05:07;;;;;;;62.20;45.10;;;4.80;99.90;;;;;;4921218;29;20027;-87
2023/02/10 07:07:34;;;;;;;59.50;44.33;;;4.80;99.90;;;;;;4922446;29;20047;-88
2023/02/10 07:10:00;;;;;;;61.37;41.27;;;4.90;99.90;;;;;;4954971;29;20023;-88
2023/02/10 07:12:26;;;;;;;58.47;44.77;;;4.80;99.90;;;;;;4953268;29;20039;-87
2023/02/10 07:14:52;;;;;;;64.63;45.07;;;4.70;99.90;;;;;;4936810;29;20038;-86
2023/02/10 07:17:18;;;;;;;62.67;44.70;;;4.90;99.90;;;;;;4920055;29;20039;-87
2023/02/10 07:19:44;;;;;;;58.67;44.53;;;5.10;99.90;;;;;;4935074;29;20035;-87
2023/02/10 07:22:10;;;;;;;55.37;40.23;;;5.20;99.90;;;;;;4949441;29;20062;-87
2023/02/10 07:24:37;;;;;;;57.40;43.47;;;5.10;99.90;;;;;;4936845;29;20039;-89
2023/02/10 07:27:03;;;;;;;60.27;43.73;;;4.80;99.90;;;;;;4949422;28;20054;-87
2023/02/10 07:29:29;;;;;;;64.50;45.17;;;5.00;99.90;;;;;;4903821;29;20046;-87
2023/02/10 07:31:57;;;;;;;67.03;45.07;;;5.00;99.90;;;;;;4933667;28;20050;-87
2023/02/10 07:34:24;;;;;;;64.17;44.37;;;5.00;99.90;;;;;;4954194;29;20027;-87
2023/02/10 07:36:53;;;;;;;65.13;45.37;;;5.00;99.90;;;;;;4918256;29;20051;-87
2023/02/10 07:39:20;;;;;;;58.93;43.23;;;5.00;99.90;;;;;;4937127;29;20031;-86
2023/02/10 07:41:47;;;;;;;60.73;43.47;;;5.10;99.90;;;;;;4951981;29;20038;-87
2023/02/10 07:44:13;;;;;;;61.73;44.83;;;5.00;99.90;;;;;;4921371;29;20477;-86
2023/02/10 07:46:39;;;;;;;61.33;42.33;;;4.80;99.90;;;;;;4934381;28;20416;-86
2023/02/10 07:49:05;;;;;;;53.67;40.23;;;4.90;99.90;;;;;;4937385;29;20035;-92
2023/02/10 07:51:31;;;;;;;61.77;42.43;;;4.60;99.90;;;;;;4955486;29;20027;-93
2023/02/10 07:53:57;;;;;;;62.27;44.60;;;4.50;99.90;;;;;;4954249;29;20062;-96
2023/02/10 07:56:23;;;;;;;63.60;44.07;;;4.70;99.90;;;;;;4937794;29;20482;-92
2023/02/10 07:58:49;;;;;;;59.67;44.40;;;4.80;99.90;;;;;;4937347;29;20042;-92
2023/02/10 08:01:15;;;;;;;60.77;43.80;;;4.70;99.90;;;;;;4953111;28;20039;-88
2023/02/10 08:03:41;;;;;;;63.73;43.47;;;4.70;99.90;;;;;;4935943;29;20050;-87
2023/02/10 08:06:08;;;;;;;63.13;43.63;;;4.70;99.90;;;;;;4921339;29;20043;-86
2023/02/10 08:08:34;;;;;;;65.47;45.50;;;4.70;99.90;;;;;;4937031;29;20384;-88
2023/02/10 08:11:03;;;;;;;69.27;44.27;;;4.80;99.90;;;;;;4935620;29;20043;-87
2023/02/10 08:13:29;;;;;;;61.97;44.03;;;4.70;99.90;;;;;;4937517;29;20023;-91
2023/02/10 08:15:56;;;;;;;57.60;41.17;;;5.00;99.90;;;;;;4954117;28;20028;-90
2023/02/10 08:18:22;;;;;;;62.77;43.17;;;5.00;99.90;;;;;;4954062;29;20035;-90
2023/02/10 08:20:48;;;;;;;59.70;42.97;;;4.90;99.90;;;;;;4999477;23;20058;-93
2023/02/10 08:23:15;;;;;;;58.73;40.17;;;5.20;99.90;;;;;;4979657;28;20023;-91
2023/02/10 08:25:41;;;;;;;54.70;39.20;;;5.10;99.90;;;;;;4955471;28;20081;-90
2023/02/10 08:28:08;;;;;;;71.60;47.67;;;4.90;99.90;;;;;;4956252;28;20038;-92
2023/02/10 08:30:34;;;;;;;66.60;46.77;;;5.00;99.90;;;;;;4958521;28;20037;-92
2023/02/10 08:33:00;;;;;;;62.20;43.90;;;5.30;99.90;;;;;;4943398;28;20062;-91
2023/02/10 08:35:26;;;;;;;59.00;43.40;;;5.40;99.90;;;;;;4962349;28;20041;-92
2023/02/10 08:37:52;;;;;;;66.03;47.23;;;5.50;99.90;;;;;;4980222;28;20037;-89
2023/02/10 08:40:19;;;;;;;65.53;45.10;;;5.40;99.90;;;;;;4959722;28;20039;-87
2023/02/10 08:42:45;;;;;;;67.50;48.03;;;5.30;99.90;;;;;;4977154;28;20038;-87
2023/02/10 08:45:11;;;;;;;68.53;48.60;;;5.50;99.90;;;;;;4941036;28;20042;-87
2023/02/10 08:47:37;;;;;;;69.43;47.10;;;5.60;99.90;;;;;;4959348;28;20038;-89
2023/02/10 08:50:03;;;;;;;63.83;48.03;;;5.80;99.90;;;;;;4976547;28;20027;-92
2023/02/10 08:52:30;;;;;;;64.67;48.23;;;5.90;99.90;;;;;;4928937;28;20400;-92
2023/02/10 08:54:56;;;;;;;55.70;45.43;;;5.90;99.90;;;;;;4957895;28;20436;-87
2023/02/10 08:57:22;;;;;;;60.33;46.10;;;5.60;99.90;;;;;;4958784;28;20043;-91
2023/02/10 08:59:48;;;;;;;66.37;47.37;;;5.40;99.90;;;;;;4959377;28;20038;-89
2023/02/10 09:02:14;;;;;;;64.67;48.07;;;5.30;99.90;;;;;;4956368;28;20042;-87
2023/02/10 09:04:42;;;;;;;73.73;51.87;;;5.50;99.90;;;;;;4962230;28;20027;-93
2023/02/10 09:07:10;;;;;;;60.43;47.57;;;5.60;99.90;;;;;;4944428;28;20051;-92
2023/02/10 09:09:40;;;;;;;83.03;53.97;;;5.50;99.90;;;;;;4960008;28;20423;-94
2023/02/10 09:12:09;;;;;;;74.97;52.88;;;5.60;99.90;;;;;;4945386;28;20047;-92
2023/02/10 09:14:35;;;;;;;63.90;50.23;;;5.60;99.90;;;;;;4979642;28;20042;-95
2023/02/10 09:17:01;;;;;;;72.13;53.30;;;5.70;99.90;;;;;;4960622;28;20404;-92
2023/02/10 09:19:27;;;;;;;68.33;52.97;;;5.80;99.90;;;;;;4969329;28;20047;-91
2023/02/10 09:21:55;;;;;;;71.67;55.10;;;6.00;99.90;;;;;;4958857;28;20039;-86
2023/02/10 09:24:21;;;;;;;74.10;57.37;;;6.00;99.90;;;;;;4974568;28;20038;-86
2023/02/10 09:26:47;;;;;;;75.37;56.97;;;6.00;99.90;;;;;;4957904;28;20046;-87
2023/02/10 09:29:14;;;;;;;72.17;56.50;;;6.20;99.90;;;;;;4958032;28;20038;-86
2023/02/10 09:31:40;;;;;;;65.63;53.37;;;6.10;99.90;;;;;;4941632;28;20031;-93
2023/02/10 09:34:06;;;;;;;69.17;53.50;;;6.10;99.90;;;;;;4943352;28;20023;-86
2023/02/10 09:36:32;;;;;;;66.03;51.17;;;6.20;99.90;;;;;;4942800;28;20369;-88
2023/02/10 09:38:58;;;;;;;70.37;52.47;;;6.40;99.90;;;;;;4958883;28;20038;-86
2023/02/10 09:41:33;;;;;;;62.70;50.07;;;6.40;99.90;;;;;;4957511;28;20030;-87
2023/02/10 09:43:59;;;;;;;65.37;50.13;;;6.50;99.90;;;;;;4975075;28;20035;-86
2023/02/10 09:46:50;;;;;;;68.17;49.67;;;6.50;99.90;;;;;;4955207;28;20039;-86
2023/02/10 09:49:53;;;;;;;66.75;49.53;;;6.60;99.90;;;;;;4953021;28;20061;-87
2023/02/10 09:52:31;;;;;;;68.88;49.20;;;6.90;99.90;;;;;;4960436;28;20034;-87
2023/02/10 09:54:57;;;;;;;70.63;49.10;;;7.00;99.90;;;;;;4975837;28;20038;-87
2023/02/10 09:57:42;;;;;;;62.15;46.40;;;7.00;99.90;;;;;;4941359;28;20057;-87
2023/02/10 10:00:37;;;;;;;60.30;46.20;;;7.10;99.90;;;;;;4975147;28;20031;-85
2023/02/10 10:03:07;;;;;;;71.50;47.60;;;7.10;99.90;;;;;;4950739;28;20057;-87
2023/02/10 10:05:47;;;;;;;80.47;50.38;;;7.10;99.90;;;;;;4941612;28;20030;-88
2023/02/10 10:08:22;;;;;;;71.65;51.15;;;7.20;99.90;;;;;;4941744;28;20039;-87
2023/02/10 10:10:50;;;;;;;72.43;51.00;;;7.10;99.90;;;;;;4956759;28;20047;-87
2023/02/10 10:13:25;;;;;;;66.63;50.08;;;7.20;99.90;;;;;;4942059;28;20030;-87
2023/02/10 10:16:17;;;;;;;73.75;48.13;;;7.30;99.90;;;;;;4925615;28;20503;-88
2023/02/10 10:18:47;;;;;;;54.95;40.40;;;7.50;99.90;;;;;;4946899;28;20027;-84
2023/02/10 10:21:28;;;;;;;60.85;48.53;;;7.80;99.90;;;;;;4941816;28;20046;-85
2023/02/10 10:24:25;;;;;;;59.08;45.08;;;7.90;99.90;;;;;;4924769;28;20050;-84
2023/02/10 10:27:11;;;;;;;68.13;48.15;;;8.10;99.90;;;;;;4942513;28;20047;-86
2023/02/10 10:29:59;;;;;;;62.15;45.33;;;8.20;99.90;;;;;;4939914;28;20034;-87
2023/02/10 10:32:43;;;;;;;55.63;46.45;;;8.20;99.90;;;;;;4942726;28;20027;-86
2023/02/10 10:35:18;;;;;;;59.17;46.22;;;8.10;99.90;;;;;;4920727;28;20043;-85
2023/02/10 10:37:44;;;;;;;59.70;46.00;;;8.10;99.90;;;;;;4922422;29;20047;-85
2023/02/10 10:40:29;;;;;;;62.45;45.72;;;8.20;99.90;;;;;;4963059;28;20035;-86
2023/02/10 10:42:59;;;;;;;59.85;43.83;;;8.30;99.90;;;;;;4955654;28;20027;-84
2023/02/10 10:45:41;;;;;;;61.42;44.40;;;8.40;99.90;;;;;;4940490;28;20075;-85
2023/02/10 10:48:12;;;;;;;65.80;49.75;;;8.40;99.90;;;;;;4925621;28;20054;-85
2023/02/10 10:50:38;;;;;;;58.40;43.90;;;8.50;99.90;;;;;;4922973;28;20046;-84
2023/02/10 10:53:13;;;;;;;52.45;41.65;;;8.50;99.90;;;;;;4939838;28;20402;-85
2023/02/10 10:55:46;;;;;;;62.78;45.40;;;8.40;99.90;;;;;;4939660;28;20022;-88
2023/02/10 10:58:25;;;;;;;70.72;47.67;;;8.50;99.90;;;;;;4940247;28;20037;-89
2023/02/10 11:00:52;;;;;;;52.28;44.17;;;8.70;99.90;;;;;;4939930;28;20367;-88
2023/02/10 11:03:19;;;;;;;56.35;44.10;;;8.90;99.90;;;;;;4940604;28;20023;-87
2023/02/10 11:06:00;;;;;;;62.10;43.97;;;8.80;99.90;;;;;;4957608;28;20035;-95
2023/02/10 11:08:27;;;;;;;;;;;8.80;99.90;;;;;;4943597;28;20046;-92
2023/02/10 11:10:58;;;;;;;57.67;43.35;;;9.00;99.90;;;;;;4959496;28;19910;-91
2023/02/10 11:13:26;;;;;;;58.20;50.85;;;9.20;99.90;;;;;;4940821;28;20046;-93
2023/02/10 11:16:02;;;;;;;52.78;46.92;;;9.30;99.90;;;;;;4943772;28;20034;-91
2023/02/10 11:18:29;;;;;;;50.13;44.65;;;9.50;99.90;;;;;;4960276;28;20027;-92
2023/02/10 11:21:02;;;;;;;55.38;44.92;;;9.80;99.90;;;;;;4956734;28;20408;-86
2023/02/10 11:23:29;;;;;;;47.75;42.80;;;10.10;99.90;;;;;;4956321;28;20023;-87
2023/02/10 11:26:08;;;;;;;51.72;44.50;;;10.00;99.90;;;;;;4940632;28;20487;-90
2023/02/10 11:28:35;;;;;;;43.50;38.80;;;10.20;99.90;;;;;;4974223;28;20039;-90
2023/02/10 11:31:05;;;;;;;47.17;35.97;;;10.40;99.90;;;;;;4955658;28;20050;-91
2023/02/10 11:33:33;;;;;;;41.75;37.00;;;10.30;99.90;;;;;;4940866;28;20031;-89
2023/02/10 11:36:07;;;;;;;41.53;37.13;;;10.60;99.90;;;;;;4924360;28;20045;-86
2023/02/10 11:38:33;;;;;;;48.65;38.65;;;10.60;99.90;;;;;;4962763;28;20027;-86
2023/02/10 11:41:01;;;;;;;41.10;36.67;;;10.40;99.90;;;;;;4956409;28;20069;-84
2023/02/10 11:43:43;;;;;;;41.00;31.83;;;10.30;99.90;;;;;;4939083;28;20119;-88
2023/02/10 11:46:30;;;;;;;35.08;31.33;;;10.60;99.90;;;;;;4941763;28;20034;-83
2023/02/10 11:49:04;;;;;;;35.70;31.95;;;10.70;99.90;;;;;;4941170;28;20762;-84
2023/02/10 11:51:31;;;;;;;38.72;31.55;;;10.50;99.90;;;;;;4955192;28;20031;-84
2023/02/10 11:53:57;;;;;;;34.78;30.77;;;10.40;99.90;;;;;;4939819;28;20444;-87
2023/02/10 11:59:35;;;;;;;33.38;29.92;;;11.00;99.90;;;;;;4976263;28;20045;-86
2023/02/10 12:02:10;;;;;;;30.00;26.77;;;11.30;99.90;;;;;;4939400;28;20035;-86
2023/02/10 12:04:55;;;;;;;29.25;26.55;;;11.80;99.90;;;;;;4955616;28;20034;-86
2023/02/10 12:07:26;;;;;;;29.05;26.38;;;11.90;99.90;;;;;;4971825;28;20051;-86
2023/02/10 12:09:54;;;;;;;29.30;26.70;;;12.30;99.90;;;;;;4955175;28;20050;-84
2023/02/10 12:12:59;;;;;;;32.58;29.58;;;12.70;99.90;;;;;;4957705;28;20035;-85
2023/02/10 12:15:37;;;;;;;33.17;29.88;;;13.10;99.90;;;;;;4971863;28;20031;-84
2023/02/10 12:18:09;;;;;;;33.70;30.90;;;13.20;99.90;;;;;;4959448;28;20042;-84
2023/02/10 12:20:42;;;;;;;;;;;13.40;99.90;;;;;;4958768;28;20503;-85
2023/02/10 12:23:08;;;;;;;32.35;29.75;;;13.70;99.90;;;;;;4955572;28;19925;-84
2023/02/10 12:25:40;;;;;;;33.95;30.73;;;14.00;99.90;;;;;;4972979;28;20042;-85
2023/02/10 12:28:14;;;;;;;35.58;32.60;;;14.10;99.90;;;;;;4960770;28;20034;-85
2023/02/10 12:31:13;;;;;;;33.83;30.75;;;14.10;99.90;;;;;;4958094;28;20487;-84
2023/02/10 12:34:01;;;;;;;32.60;30.00;;;13.90;99.90;;;;;;4944853;28;20026;-84
2023/02/10 12:36:48;;;;;;;33.38;30.63;;;13.70;99.90;;;;;;4976416;28;20054;-85
2023/02/10 12:39:24;;;;;;;37.88;33.95;;;13.80;99.90;;;;;;4958044;28;20038;-85
2023/02/10 12:42:11;;;;;;;34.22;31.50;;;14.00;99.90;;;;;;4959881;28;20035;-85
2023/02/10 12:45:09;;;;;;;33.97;30.85;;;14.30;99.90;;;;;;4943720;28;20126;-85
2023/02/10 12:47:58;;;;;;;33.85;30.98;;;14.50;99.90;;;;;;4943618;28;20070;-85
2023/02/10 12:51:01;;;;;;;34.95;31.65;;;14.50;99.90;;;;;;4905892;29;20036;-85